Map

Track Data

SID SEASON NUMBER BASIN SUBBASIN NAME ISO_TIME NATURE LAT LON WMO_WIND WMO_PRES WMO_AGENCY TRACK_TYPE DIST2LAND LANDFALL IFLAG USA_AGENCY USA_ATCF_ID USA_LAT USA_LON USA_RECORD USA_STATUS USA_WIND USA_PRES USA_SSHS USA_R34_NE USA_R34_SE USA_R34_SW USA_R34_NW USA_R50_NE USA_R50_SE USA_R50_SW USA_R50_NW USA_R64_NE USA_R64_SE USA_R64_SW USA_R64_NW USA_POCI USA_ROCI USA_RMW USA_EYE TOKYO_LAT TOKYO_LON TOKYO_GRADE TOKYO_WIND TOKYO_PRES TOKYO_R50_DIR TOKYO_R50_LONG TOKYO_R50_SHORT TOKYO_R30_DIR TOKYO_R30_LONG TOKYO_R30_SHORT TOKYO_LAND CMA_LAT CMA_LON CMA_CAT CMA_WIND CMA_PRES HKO_LAT HKO_LON HKO_CAT HKO_WIND HKO_PRES NEWDELHI_LAT NEWDELHI_LON NEWDELHI_GRADE NEWDELHI_WIND NEWDELHI_PRES NEWDELHI_CI NEWDELHI_DP NEWDELHI_POCI REUNION_LAT REUNION_LON REUNION_TYPE REUNION_WIND REUNION_PRES REUNION_TNUM REUNION_CI REUNION_RMW REUNION_R34_NE REUNION_R34_SE REUNION_R34_SW REUNION_R34_NW REUNION_R50_NE REUNION_R50_SE REUNION_R50_SW REUNION_R50_NW REUNION_R64_NE REUNION_R64_SE REUNION_R64_SW REUNION_R64_NW BOM_LAT BOM_LON BOM_TYPE BOM_WIND BOM_PRES BOM_TNUM BOM_CI BOM_RMW BOM_R34_NE BOM_R34_SE BOM_R34_SW BOM_R34_NW BOM_R50_NE BOM_R50_SE BOM_R50_SW BOM_R50_NW BOM_R64_NE BOM_R64_SE BOM_R64_SW BOM_R64_NW BOM_ROCI BOM_POCI BOM_EYE BOM_POS_METHOD BOM_PRES_METHOD NADI_LAT NADI_LON NADI_CAT NADI_WIND NADI_PRES WELLINGTON_LAT WELLINGTON_LON WELLINGTON_WIND WELLINGTON_PRES DS824_LAT DS824_LON DS824_STAGE DS824_WIND DS824_PRES TD9636_LAT TD9636_LON TD9636_STAGE TD9636_WIND TD9636_PRES TD9635_LAT TD9635_LON TD9635_WIND TD9635_PRES TD9635_ROCI NEUMANN_LAT NEUMANN_LON NEUMANN_CLASS NEUMANN_WIND NEUMANN_PRES MLC_LAT MLC_LON MLC_CLASS MLC_WIND MLC_PRES USA_GUST BOM_GUST BOM_GUST_PER REUNION_GUST REUNION_GUST_PER USA_SEAHGT USA_SEARAD_NE USA_SEARAD_SE USA_SEARAD_SW USA_SEARAD_NW STORM_SPEED STORM_DIR
2021208N13245 2021 53 EP MM JIMENA 2021-07-26 18:00:00 DS 13.2000 -114.700 20 1008 hurdat_epa main 1193 1193 O_____________ hurdat_epa EP092021 13.2000 -114.700 LO 20 1008 -3 1012 180 30 8 263
2021208N13245 2021 53 EP MM JIMENA 2021-07-26 21:00:00 DS 13.1477 -115.118 main 1221 1221 P_____________ EP092021 13.1477 -115.118 LO 20 1008 -3 1012 180 30 8 263
2021208N13245 2021 53 EP MM JIMENA 2021-07-27 00:00:00 DS 13.1000 -115.500 20 1008 hurdat_epa main 1240 1240 O_____________ hurdat_epa EP092021 13.1000 -115.500 LO 20 1008 -3 1012 180 30 7 263
2021208N13245 2021 53 EP MM JIMENA 2021-07-27 03:00:00 DS 13.0574 -115.822 main 1255 1255 P_____________ EP092021 13.0574 -115.822 LO 20 1008 -3 1012 180 30 6 260
2021208N13245 2021 53 EP MM JIMENA 2021-07-27 06:00:00 DS 13.0000 -116.100 20 1008 hurdat_epa main 1281 1281 O_____________ hurdat_epa EP092021 13.0000 -116.100 LO 20 1008 -3 1012 180 30 5 255
2021208N13245 2021 53 EP MM JIMENA 2021-07-27 09:00:00 DS 12.9150 -116.365 main 1307 1307 P_____________ EP092021 12.9150 -116.365 LO 20 1008 -3 1011 180 30 5 248
2021208N13245 2021 53 EP MM JIMENA 2021-07-27 12:00:00 DS 12.8000 -116.600 20 1008 hurdat_epa main 1327 1327 O_____________ hurdat_epa EP092021 12.8000 -116.600 LO 20 1008 -3 1011 180 30 5 235
2021208N13245 2021 53 EP MM JIMENA 2021-07-27 15:00:00 DS 12.6274 -116.793 main 1358 1358 P_____________ EP092021 12.6274 -116.793 LO 20 1008 -3 1011 180 30 5 232
2021208N13245 2021 53 EP MM JIMENA 2021-07-27 18:00:00 DS 12.5000 -117.000 20 1008 hurdat_epa main 1379 1379 O_____________ hurdat_epa EP092021 12.5000 -117.000 LO 20 1008 -3 1011 180 30 5 256
2021208N13245 2021 53 EP MM JIMENA 2021-07-27 21:00:00 DS 12.5050 -117.285 main 1396 1396 P_____________ EP092021 12.5050 -117.285 LO 22 1008 -3 1011 180 35 6 280
2021208N13245 2021 53 EP MM JIMENA 2021-07-28 00:00:00 DS 12.6000 -117.600 25 1008 hurdat_epa main 1404 1401 O_____________ hurdat_epa EP092021 12.6000 -117.600 LO 25 1008 -3 1011 180 40 6 290
2021208N13245 2021 53 EP MM JIMENA 2021-07-28 03:00:00 DS 12.7199 -117.885 main 1414 1408 P_____________ EP092021 12.7199 -117.885 LO 25 1008 -3 1011 180 40 7 297
2021208N13245 2021 53 EP MM JIMENA 2021-07-28 06:00:00 DS 12.9000 -118.200 25 1008 hurdat_epa main 1415 1410 O_____________ hurdat_epa EP092021 12.9000 -118.200 LO 25 1008 -3 1011 180 40 8 303
2021208N13245 2021 53 EP MM JIMENA 2021-07-28 09:00:00 DS 13.1500 -118.577 main 1423 1412 P_____________ EP092021 13.1500 -118.577 LO 25 1008 -3 1011 180 40 9 303
2021208N13245 2021 53 EP MM JIMENA 2021-07-28 12:00:00 DS 13.4000 -119.000 25 1008 hurdat_epa main 1425 1423 O_____________ hurdat_epa EP092021 13.4000 -119.000 LO 25 1008 -3 1011 180 40 9 298
2021208N13245 2021 53 EP MM JIMENA 2021-07-28 15:00:00 DS 13.5874 -119.428 main 1437 1437 P_____________ EP092021 13.5874 -119.428 LO 25 1008 -3 1011 180 40 9 289
2021208N13245 2021 53 EP MM JIMENA 2021-07-28 18:00:00 DS 13.7000 -119.900 25 1008 hurdat_epa main 1465 1465 O_____________ hurdat_epa EP092021 13.7000 -119.900 LO 25 1008 -3 1011 180 40 10 278
2021208N13245 2021 53 EP MM JIMENA 2021-07-28 21:00:00 DS 13.7300 -120.443 main 1503 1503 P_____________ EP092021 13.7300 -120.443 LO 25 1007 -3 1011 180 40 11 270
2021208N13245 2021 53 EP MM JIMENA 2021-07-29 00:00:00 DS 13.7000 -121.000 25 1007 hurdat_epa main 1543 1543 O_____________ hurdat_epa EP092021 13.7000 -121.000 LO 25 1007 -3 1011 180 40 11 267
2021208N13245 2021 53 EP MM JIMENA 2021-07-29 03:00:00 DS 13.6650 -121.538 main 1576 1576 P_____________ EP092021 13.6650 -121.538 LO 27 1007 -3 1011 180 40 10 264
2021208N13245 2021 53 EP MM JIMENA 2021-07-29 06:00:00 DS 13.6000 -122.000 30 1007 hurdat_epa main 1618 1618 O_____________ hurdat_epa EP092021 13.6000 -122.000 LO 30 1007 -3 1011 180 40 8 258
2021208N13245 2021 53 EP MM JIMENA 2021-07-29 09:00:00 DS 13.5073 -122.330 main 1647 1647 P_____________ EP092021 13.5073 -122.330 LO 30 1007 -3 1011 180 40 6 251
2021208N13245 2021 53 EP MM JIMENA 2021-07-29 12:00:00 DS 13.4000 -122.600 30 1007 hurdat_epa main 1676 1676 O_____________ hurdat_epa EP092021 13.4000 -122.600 LO 30 1007 -3 1011 180 40 6 249
2021208N13245 2021 53 EP MM JIMENA 2021-07-29 15:00:00 DS 13.3000 -122.900 main 1705 1705 P_____________ EP092021 13.3000 -122.900 LO 30 1007 -3 1011 180 50 6 251
2021208N13245 2021 53 EP MM JIMENA 2021-07-29 18:00:00 DS 13.2000 -123.200 30 1007 hurdat_epa main 1735 1735 O_____________ hurdat_epa EP092021 13.2000 -123.200 LO 30 1007 -3 1011 180 60 6 252
2021208N13245 2021 53 EP MM JIMENA 2021-07-29 21:00:00 DS 13.1075 -123.500 main 1764 1764 P_____________ EP092021 13.1075 -123.500 LO 27 1007 -3 1011 180 65 6 251
2021208N13245 2021 53 EP MM JIMENA 2021-07-30 00:00:00 DS 13.0000 -123.800 25 1007 hurdat_epa main 1794 1794 O_____________ hurdat_epa EP092021 13.0000 -123.800 LO 25 1007 -3 1011 180 70 6 246
2021208N13245 2021 53 EP MM JIMENA 2021-07-30 03:00:00 DS 12.8500 -124.100 main 1833 1833 P_____________ EP092021 12.8500 -124.100 LO 25 1007 -3 1011 180 70 7 243
2021208N13245 2021 53 EP MM JIMENA 2021-07-30 06:00:00 DS 12.7000 -124.400 25 1007 hurdat_epa main 1863 1863 O_____________ hurdat_epa EP092021 12.7000 -124.400 LO 25 1007 -3 1011 180 70 40 6 246
2021208N13245 2021 53 EP MM JIMENA 2021-07-30 09:00:00 DS 12.5850 -124.700 main 1893 1893 P_____________ EP092021 12.5850 -124.700 LO 25 1007 -3 1011 180 70 6 251
2021208N13245 2021 53 EP MM JIMENA 2021-07-30 12:00:00 DS 12.5000 -125.000 25 1007 hurdat_epa main 1923 1923 O_____________ hurdat_epa EP092021 12.5000 -125.000 LO 25 1007 -3 1011 180 70 40 6 257
2021208N13245 2021 53 EP MM JIMENA 2021-07-30 15:00:00 DS 12.4499 -125.292 main 1954 1954 P_____________ EP092021 12.4499 -125.292 LO 25 1007 -3 1011 180 70 6 260
2021208N13245 2021 53 EP MM JIMENA 2021-07-30 18:00:00 TS 12.4000 -125.600 25 1007 hurdat_epa main 1976 1976 O_____________ hurdat_epa EP092021 12.4000 -125.600 TD 25 1007 -1 1011 180 70 35 7 258
2021208N13245 2021 53 EP MM JIMENA 2021-07-30 21:00:00 TS 12.3075 -125.950 main 2014 2014 P_____________ EP092021 12.3075 -125.950 TD 25 1007 -1 1011 180 70 7 254
2021208N13245 2021 53 EP MM JIMENA 2021-07-31 00:00:00 TS 12.2000 -126.300 25 1007 hurdat_epa main 2045 2045 O_____________ hurdat_epa EP092021 12.2000 -126.300 TD 25 1007 -1 1011 180 70 35 7 251
2021208N13245 2021 53 EP MM JIMENA 2021-07-31 03:00:00 TS 12.0849 -126.600 main 2076 2076 P_____________ EP092021 12.0849 -126.600 TD 25 1007 -1 1011 180 70 6 251
2021208N13245 2021 53 EP MM JIMENA 2021-07-31 06:00:00 TS 12.0000 -126.900 25 1008 hurdat_epa main 2107 2107 O_____________ hurdat_epa EP092021 12.0000 -126.900 TD 25 1008 -1 1012 180 70 35 7 265
2021208N13245 2021 53 EP MM JIMENA 2021-07-31 09:00:00 TS 12.0226 -127.265 main 2138 2138 P_____________ EP092021 12.0226 -127.265 TD 25 1008 -1 1012 180 70 7 270
2021208N13245 2021 53 EP MM JIMENA 2021-07-31 12:00:00 TS 12.0000 -127.600 25 1008 hurdat_epa main 2162 2162 O_____________ hurdat_epa EP092021 12.0000 -127.600 TD 25 1008 -1 1012 180 70 35 7 246
2021208N13245 2021 53 EP MM JIMENA 2021-07-31 15:00:00 TS 11.7500 -127.890 main 2208 2208 P_____________ EP092021 11.7500 -127.890 TD 25 1008 -1 1012 180 70 6 218
2021208N13245 2021 53 EP MM JIMENA 2021-07-31 18:00:00 TS 11.5000 -128.000 25 1008 hurdat_epa main 2232 2224 O_____________ hurdat_epa EP092021 11.5000 -128.000 TD 25 1008 -1 1012 180 70 35 3 168
2021208N13245 2021 53 EP MM JIMENA 2021-07-31 21:00:00 TS 11.4400 -127.817 main 2224 2193 P_____________ EP092021 11.4400 -127.817 TD 25 1008 -1 1012 180 70 5 90
2021208N13245 2021 53 EP MM JIMENA 2021-08-01 00:00:00 TS 11.5000 -127.500 25 1008 hurdat_epa main 2193 2162 O_____________ hurdat_epa EP092021 11.5000 -127.500 TD 25 1008 -1 1012 180 70 35 6 74
2021208N13245 2021 53 EP MM JIMENA 2021-08-01 03:00:00 TS 11.6200 -127.190 main 2162 2131 P_____________ EP092021 11.6200 -127.190 TD 25 1008 -1 1012 195 70 6 58
2021208N13245 2021 53 EP MM JIMENA 2021-08-01 06:00:00 NR 11.8000 -127.000 25 1008 hurdat_epa main 2131 2115 O_____________ hurdat_epa EP092021 11.8000 -127.000 DB 25 1008 -3 1012 210 70 35 4 17
2021208N13245 2021 53 EP MM JIMENA 2021-08-01 09:00:00 NR 12.0224 -127.060 main 2123 2115 P_____________ EP092021 12.0224 -127.060 DB 25 1008 -3 1011 210 70 5 324
2021208N13245 2021 53 EP MM JIMENA 2021-08-01 12:00:00 NR 12.2000 -127.300 25 1008 hurdat_epa main 2123 2123 O_____________ hurdat_epa EP092021 12.2000 -127.300 DB 25 1008 -3 1011 210 70 35 6 291
2021208N13245 2021 53 EP MM JIMENA 2021-08-01 15:00:00 NR 12.2300 -127.613 main 2146 2146 P_____________ EP092021 12.2300 -127.613 DB 25 1008 -3 1011 210 70 7 270
2021208N13245 2021 53 EP MM JIMENA 2021-08-01 18:00:00 NR 12.2000 -128.000 25 1008 hurdat_epa main 2178 2178 O_____________ hurdat_epa EP092021 12.2000 -128.000 DB 25 1008 -3 1011 210 70 35 8 267
2021208N13245 2021 53 EP MM JIMENA 2021-08-01 21:00:00 NR 12.1925 -128.400 main 2210 2210 P_____________ EP092021 12.1925 -128.400 DB 25 1008 -3 1011 195 70 8 270
2021208N13245 2021 53 EP MM JIMENA 2021-08-02 00:00:00 NR 12.2000 -128.800 25 1008 hurdat_epa main 2243 2243 O_____________ hurdat_epa EP092021 12.2000 -128.800 DB 25 1008 -3 1011 180 70 35 7 273
2021208N13245 2021 53 EP MM JIMENA 2021-08-02 03:00:00 NR 12.2349 -129.158 main 2276 2275 P_____________ EP092021 12.2349 -129.158 DB 25 1008 -3 1011 180 70 7 278
2021208N13245 2021 53 EP MM JIMENA 2021-08-02 06:00:00 NR 12.3000 -129.500 25 1008 hurdat_epa main 2289 2289 O_____________ hurdat_epa EP092021 12.3000 -129.500 DB 25 1008 -3 1011 180 70 7 283
2021208N13245 2021 53 EP MM JIMENA 2021-08-02 09:00:00 NR 12.3924 -129.843 main 2301 2301 P_____________ EP092021 12.3924 -129.843 DB 25 1008 -3 1011 180 70 7 286
2021208N13245 2021 53 EP MM JIMENA 2021-08-02 12:00:00 NR 12.5000 -130.200 25 1008 hurdat_epa main 2320 2320 O_____________ hurdat_epa EP092021 12.5000 -130.200 DB 25 1008 -3 1011 180 70 8 285
2021208N13245 2021 53 EP MM JIMENA 2021-08-02 15:00:00 NR 12.5924 -130.585 main 2340 2340 P_____________ EP092021 12.5924 -130.585 DB 27 1007 -3 1011 180 70 8 284
2021208N13245 2021 53 EP MM JIMENA 2021-08-02 18:00:00 NR 12.7000 -131.000 30 1007 hurdat_epa main 2361 2361 O_____________ hurdat_epa EP092021 12.7000 -131.000 DB 30 1007 -3 1011 180 70 9 286
2021208N13245 2021 53 EP MM JIMENA 2021-08-02 21:00:00 NR 12.8425 -131.457 main 2390 2381 P_____________ EP092021 12.8425 -131.457 DB 30 1007 -3 1011 150 70 9 289
2021208N13245 2021 53 EP MM JIMENA 2021-08-03 00:00:00 NR 13.0000 -131.900 30 1007 hurdat_epa main 2403 2403 O_____________ hurdat_epa EP092021 13.0000 -131.900 DB 30 1007 -3 1011 120 70 9 291
2021208N13245 2021 53 EP MM JIMENA 2021-08-03 03:00:00 NR 13.1574 -132.280 main 2418 2418 P_____________ EP092021 13.1574 -132.280 DB 30 1007 -3 1011 120 70 7 294
2021208N13245 2021 53 EP MM JIMENA 2021-08-03 06:00:00 NR 13.3000 -132.600 30 1007 hurdat_epa main 2433 2431 O_____________ hurdat_epa EP092021 13.3000 -132.600 DB 30 1007 -3 1011 120 70 40 6 294
2021208N13245 2021 53 EP MM JIMENA 2021-08-03 09:00:00 NR 13.4149 -132.865 main 2431 2407 P_____________ EP092021 13.4149 -132.865 DB 30 1007 -3 1011 120 70 5 292
2021208N13245 2021 53 EP MM JIMENA 2021-08-03 12:00:00 NR 13.5000 -133.100 30 1007 hurdat_epa main 2407 2383 O_____________ hurdat_epa EP092021 13.5000 -133.100 DB 30 1007 -3 1011 120 70 40 5 288
2021208N13245 2021 53 EP MM JIMENA 2021-08-03 15:00:00 NR 13.5649 -133.335 main 2383 2352 P_____________ EP092021 13.5649 -133.335 DB 30 1007 -3 1011 120 70 5 282
2021208N13245 2021 53 EP MM JIMENA 2021-08-03 18:00:00 NR 13.6000 -133.600 30 1007 hurdat_epa main 2352 2321 O_____________ hurdat_epa EP092021 13.6000 -133.600 DB 30 1007 -3 1011 120 70 40 6 273
2021208N13245 2021 53 EP MM JIMENA 2021-08-03 21:00:00 NR 13.6001 -133.950 main 2311 2281 P_____________ EP092021 13.6001 -133.950 DB 30 1007 -3 1010 130 70 7 270
2021208N13245 2021 53 EP MM JIMENA 2021-08-04 00:00:00 NR 13.6000 -134.300 30 1007 hurdat_epa main 2281 2250 O_____________ hurdat_epa EP092021 13.6000 -134.300 DB 30 1007 -3 1010 140 70 6 273
2021208N13245 2021 53 EP MM JIMENA 2021-08-04 03:00:00 NR 13.6274 -134.573 main 2250 2226 P_____________ EP092021 13.6274 -134.573 DB 30 1007 -3 1010 140 70 5 282
2021208N13245 2021 53 EP MM JIMENA 2021-08-04 06:00:00 NR 13.7000 -134.800 30 1007 hurdat_epa main 2226 2202 O_____________ hurdat_epa EP092021 13.7000 -134.800 DB 30 1007 -3 1010 140 70 40 5 295
2021208N13245 2021 53 EP MM JIMENA 2021-08-04 09:00:00 NR 13.8275 -135.008 main 2202 2174 P_____________ EP092021 13.8275 -135.008 DB 30 1007 -3 1010 140 60 5 308
2021208N13245 2021 53 EP MM JIMENA 2021-08-04 12:00:00 NR 14.0000 -135.200 30 1007 hurdat_epa main 2174 2146 O_____________ hurdat_epa EP092021 14.0000 -135.200 DB 30 1007 -3 1010 140 50 40 5 313
2021208N13245 2021 53 EP MM JIMENA 2021-08-04 15:00:00 NR 14.1850 -135.400 main 2146 2119 P_____________ EP092021 14.1850 -135.400 DB 30 1007 -3 1010 140 45 6 316
2021208N13245 2021 53 EP MM JIMENA 2021-08-04 18:00:00 TS 14.4000 -135.600 30 1007 hurdat_epa main 2119 2091 O_____________ hurdat_epa EP092021 14.4000 -135.600 TD 30 1007 -1 1010 140 40 40 6 320
2021208N13245 2021 53 EP MM JIMENA 2021-08-04 21:00:00 TS 14.6500 -135.800 main 2091 2061 P_____________ EP092021 14.6500 -135.800 TD 30 1007 -1 1010 130 40 6 322
2021208N13245 2021 53 EP MM JIMENA 2021-08-05 00:00:00 TS 14.9000 -136.000 30 1007 hurdat_epa main 2061 2034 O_____________ hurdat_epa EP092021 14.9000 -136.000 TD 30 1007 -1 1010 120 40 40 12 60 45 30 45 6 320
2021208N13245 2021 53 EP MM JIMENA 2021-08-05 03:00:00 TS 15.1075 -136.200 main 2034 2007 P_____________ EP092021 15.1075 -136.200 TD 30 1006 -1 1010 120 40 12 60 45 30 45 6 316
2021208N13245 2021 53 EP MM JIMENA 2021-08-05 06:00:00 TS 15.3000 -136.400 30 1006 hurdat_epa main 2007 1980 O_____________ hurdat_epa EP092021 15.3000 -136.400 TD 30 1006 -1 1010 120 40 40 12 60 45 30 45 5 315
2021208N13245 2021 53 EP MM JIMENA 2021-08-05 09:00:00 TS 15.4925 -136.600 main 1980 1953 P_____________ EP092021 15.4925 -136.600 TD 32 1005 -1 1010 120 35 6 316
2021208N13245 2021 53 EP MM JIMENA 2021-08-05 12:00:00 TS 15.7000 -136.800 35 1005 hurdat_epa main 1953 1927 O_____________ hurdat_epa EP092021 15.7000 -136.800 TS 35 1005 0 40 1010 120 30 45 6 320
2021208N13245 2021 53 EP MM JIMENA 2021-08-05 15:00:00 TS 15.9500 -137.000 main 1927 1898 P_____________ EP092021 15.9500 -137.000 TS 35 1004 0 40 1010 120 30 6 322
2021208N13245 2021 53 EP MM JIMENA 2021-08-05 18:00:00 TS 16.2000 -137.200 35 1004 hurdat_epa main 1898 1872 O_____________ hurdat_epa EP092021 16.2000 -137.200 TS 35 1004 0 40 20 1010 120 30 45 12 30 30 30 6 321
2021208N13245 2021 53 EP MM JIMENA 2021-08-05 21:00:00 TS 16.4074 -137.385 main 1872 1846 P_____________ EP092021 16.4074 -137.385 TS 35 1004 0 35 25 1010 120 30 12 30 30 30 6 316
2021208N13245 2021 53 EP MM JIMENA 2021-08-06 00:00:00 TS 16.6000 -137.600 35 1005 hurdat_epa main 1846 1810 O_____________ hurdat_epa EP092021 16.6000 -137.600 TS 35 1005 0 30 30 1010 120 30 45 12 30 30 30 6 311
2021208N13245 2021 53 EP MM JIMENA 2021-08-06 03:00:00 TS 16.8074 -137.870 main 1810 1774 P_____________ EP092021 16.8074 -137.870 TS 35 1005 0 30 30 1010 120 30 12 30 30 7 305
2021208N13245 2021 53 EP MM JIMENA 2021-08-06 06:00:00 TS 17.0000 -138.200 35 1006 hurdat_epa main 1774 1730 O_____________ hurdat_epa EP092021 17.0000 -138.200 TS 35 1006 0 30 30 30 1010 120 30 45 12 30 30 8 297
2021208N13245 2021 53 EP MM JIMENA 2021-08-06 09:00:00 TS 17.1575 -138.593 main 1728 1684 P_____________ EP092021 17.1575 -138.593 TS 35 1006 0 30 30 30 1011 120 30 12 30 30 8 291
2021208N13245 2021 53 EP MM JIMENA 2021-08-06 12:00:00 TS 17.3000 -139.000 35 1006 hurdat_epa main 1684 1651 O_____________ hurdat_epa EP092021 17.3000 -139.000 TS 35 1006 0 30 30 30 1012 120 30 45 12 30 30 8 292
2021208N13245 2021 53 EP MM JIMENA 2021-08-06 15:00:00 TS 17.4499 -139.350 main 1640 1605 P_____________ EP092021 17.4499 -139.350 TS 32 1007 -1 1012 105 30 7 294
2021208N13245 2021 53 EP MM JIMENA 2021-08-06 18:00:00 TS 17.6000 -139.700 30 1008 hurdat_epa main 1605 1561 O_____________ hurdat_epa EP092021 17.6000 -139.700 TD 30 1008 -1 1012 90 30 40 8 293
2021208N13245 2021 53 EP CP JIMENA 2021-08-06 21:00:00 TS 17.7502 -140.087 main 1559 1516 P_____________ EP092021 17.7502 -140.087 TD 27 1008 -1 1012 90 30 8 292
2021208N13245 2021 53 EP CP JIMENA 2021-08-07 00:00:00 DS 17.9000 -140.500 25 1008 hurdat_epa main 1516 O_____________ hurdat_epa EP092021 17.9000 -140.500 LO 25 1008 -3 1012 90 30 8 291

About IBTrACS Database

This database is a web-friendly format of International Best Track Archive for Climate Stewardship (IBTrACS), a global best track data archive curated by NOAA dating back to 1842.

Updated: 2022-11-16